Terminal Aerodrome Forecast
Issued by NWS

Home | Current Version | Previous Version | Text Only | Print | Product List | Glossary On
Versions: 1 2 3 4 5 6 7 8 9 10 11 12 13 14 15 16
000
FTUS43 KDTX 031130
TAFDET
TAF
KDET 031130Z 0312/0412 25007KT P6SM BKN025
     FM031400 27010G15KT P6SM SCT015
     FM031600 29012G20KT P6SM SCT050
     FM040000 29008KT P6SM SKC=

USA.gov is the U.S. government's official web portal to all federal, state and local government web resources and services.